Time;durP1;ratioP1;P1;durP2;ratioP2;P2;SDS_P1;SDS_P2;PMS_P1;PMS_P2;Temp;Humidity;BMP_temperature;BMP_pressure;BME280_temperature;BME280_humidity;BME280_pressure;Samples;Min_cycle;Max_cycle;Signal;HPM_P1;HPM_P2
2021/08/20 00:00:27;;;;;;;18.83;12.90;;;16.70;99.90;;;;;;5077601;28;20544;-71
2021/08/20 00:02:54;;;;;;;18.58;13.20;;;16.70;99.90;;;;;;5073551;28;20200;-70
2021/08/20 00:05:22;;;;;;;21.50;13.13;;;16.70;99.90;;;;;;5074911;28;20202;-70
2021/08/20 00:07:49;;;;;;;20.33;13.10;;;16.70;99.90;;;;;;5074045;28;20206;-70
2021/08/20 00:10:16;;;;;;;18.77;13.70;;;16.70;99.90;;;;;;5069507;28;20312;-70
2021/08/20 00:12:44;;;;;;;20.80;13.95;;;16.70;99.90;;;;;;5072954;28;20191;-71
2021/08/20 00:15:12;;;;;;;19.88;13.68;;;16.70;99.90;;;;;;5074514;28;20195;-72
2021/08/20 00:17:39;;;;;;;17.77;12.98;;;16.80;99.90;;;;;;5073931;28;20941;-69
2021/08/20 00:20:07;;;;;;;20.17;13.65;;;16.80;99.90;;;;;;5072154;28;20279;-69
2021/08/20 00:22:36;;;;;;;20.58;13.25;;;16.70;99.90;;;;;;5072667;28;20241;-71
2021/08/20 00:25:04;;;;;;;17.48;12.30;;;16.70;99.90;;;;;;5074203;28;20194;-70
2021/08/20 00:27:31;;;;;;;19.17;13.02;;;16.70;99.90;;;;;;5074693;28;20251;-71
2021/08/20 00:29:58;;;;;;;17.58;12.10;;;16.80;99.90;;;;;;5072881;28;20241;-71
2021/08/20 00:32:24;;;;;;;16.98;12.80;;;16.80;99.90;;;;;;5074257;28;20203;-70
2021/08/20 00:34:52;;;;;;;20.55;13.07;;;16.80;99.90;;;;;;5073351;28;20202;-70
2021/08/20 00:37:19;;;;;;;19.60;12.90;;;16.90;99.90;;;;;;5074736;28;20632;-70
2021/08/20 00:39:47;;;;;;;19.00;13.27;;;16.90;99.90;;;;;;5073594;28;20205;-70
2021/08/20 00:42:14;;;;;;;18.23;12.43;;;16.90;99.90;;;;;;5074179;28;20289;-70
2021/08/20 00:44:41;;;;;;;18.13;12.63;;;16.90;99.90;;;;;;5074340;28;20214;-69
2021/08/20 00:47:08;;;;;;;19.40;12.82;;;16.90;99.90;;;;;;5072842;28;20714;-69
2021/08/20 00:49:35;;;;;;;19.13;13.88;;;16.90;99.90;;;;;;5075781;28;20252;-71
2021/08/20 00:52:02;;;;;;;21.73;14.02;;;16.90;99.90;;;;;;5093812;28;20233;-72
2021/08/20 00:54:30;;;;;;;20.63;13.90;;;16.90;99.90;;;;;;5073058;28;20194;-72
2021/08/20 00:56:58;;;;;;;21.02;14.38;;;16.90;99.90;;;;;;5074265;28;20194;-71
2021/08/20 00:59:26;;;;;;;21.02;14.85;;;16.90;99.90;;;;;;5073336;28;20222;-71
2021/08/20 01:01:53;;;;;;;20.70;14.45;;;16.90;99.90;;;;;;5077959;28;20207;-71
2021/08/20 01:04:20;;;;;;;20.48;14.65;;;16.90;99.90;;;;;;5072890;28;20275;-68
2021/08/20 01:06:47;;;;;;;23.88;15.10;;;16.90;99.90;;;;;;5072662;28;20203;-69
2021/08/20 01:09:14;;;;;;;18.83;13.18;;;16.90;99.90;;;;;;5073168;28;20260;-68
2021/08/20 01:11:41;;;;;;;23.10;15.70;;;16.80;99.90;;;;;;5073165;28;20202;-69
2021/08/20 01:14:14;;;;;;;24.40;16.48;;;16.80;99.90;;;;;;5072747;28;20714;-69
2021/08/20 01:16:41;;;;;;;21.73;15.80;;;16.70;99.90;;;;;;5073699;28;20657;-68
2021/08/20 01:19:08;;;;;;;22.63;16.05;;;16.70;99.90;;;;;;5067701;28;20219;-69
2021/08/20 01:21:35;;;;;;;24.77;16.92;;;16.70;99.90;;;;;;5067513;28;20259;-72
2021/08/20 01:24:03;;;;;;;20.60;15.48;;;16.70;99.90;;;;;;5070422;28;20226;-72
2021/08/20 01:26:32;;;;;;;22.33;15.68;;;16.70;99.90;;;;;;5074465;28;20233;-72
2021/08/20 01:29:01;;;;;;;21.02;15.60;;;16.70;99.90;;;;;;5083082;28;20672;-72
2021/08/20 01:31:28;;;;;;;22.48;15.27;;;16.70;99.90;;;;;;5071439;28;20607;-72
2021/08/20 01:33:55;;;;;;;23.10;15.98;;;16.70;99.90;;;;;;5072427;28;20256;-69
2021/08/20 01:36:23;;;;;;;23.55;15.98;;;16.70;99.90;;;;;;5087464;28;20209;-72
2021/08/20 01:38:51;;;;;;;22.77;15.98;;;16.70;99.90;;;;;;5078438;28;20222;-72
2021/08/20 01:41:21;;;;;;;23.15;16.80;;;16.60;99.90;;;;;;5072071;28;20221;-72
2021/08/20 01:43:50;;;;;;;26.13;15.65;;;16.60;99.90;;;;;;5071451;28;20209;-71
2021/08/20 01:46:17;;;;;;;22.27;15.90;;;16.70;99.90;;;;;;5072442;28;20218;-71
2021/08/20 01:48:45;;;;;;;23.10;16.17;;;16.60;99.90;;;;;;5072642;28;20259;-72
2021/08/20 01:51:14;;;;;;;22.95;16.63;;;16.70;99.90;;;;;;5073122;28;20558;-71
2021/08/20 01:53:43;;;;;;;22.45;15.18;;;16.60;99.90;;;;;;5072431;28;20676;-71
2021/08/20 01:56:14;;;;;;;23.52;16.20;;;16.70;99.90;;;;;;5072211;28;20564;-72
2021/08/20 01:58:42;;;;;;;24.42;17.17;;;16.70;99.90;;;;;;5072052;28;20218;-71
2021/08/20 02:01:10;;;;;;;22.13;15.93;;;16.70;99.90;;;;;;5077814;28;20573;-72
2021/08/20 02:03:37;;;;;;;26.08;14.85;;;16.60;99.90;;;;;;5072451;28;20214;-72
2021/08/20 02:06:04;;;;;;;22.65;14.73;;;16.70;99.90;;;;;;5072398;28;20216;-72
2021/08/20 02:08:31;;;;;;;20.33;14.70;;;16.60;99.90;;;;;;5079036;28;20208;-72
2021/08/20 02:10:58;;;;;;;21.08;14.80;;;16.70;99.90;;;;;;5079515;28;20570;-72
2021/08/20 02:13:25;;;;;;;21.52;14.75;;;16.70;99.90;;;;;;5071794;28;20561;-72
2021/08/20 02:15:52;;;;;;;22.60;15.35;;;16.60;99.90;;;;;;5071289;28;20198;-72
2021/08/20 02:18:20;;;;;;;24.33;17.20;;;16.60;99.90;;;;;;5071628;28;20230;-71
2021/08/20 02:20:47;;;;;;;24.70;17.13;;;16.60;99.90;;;;;;5070195;28;20675;-72
2021/08/20 02:23:15;;;;;;;24.75;17.40;;;16.60;99.90;;;;;;5070099;28;20205;-72
2021/08/20 02:25:42;;;;;;;23.77;17.48;;;16.60;99.90;;;;;;5070621;28;20202;-72
2021/08/20 02:28:08;;;;;;;27.00;18.88;;;16.60;99.90;;;;;;5071120;28;20206;-71
2021/08/20 02:30:35;;;;;;;25.75;18.80;;;16.60;99.90;;;;;;5072192;28;20206;-71
2021/08/20 02:33:02;;;;;;;25.17;18.08;;;16.60;99.90;;;;;;5070996;28;20198;-71
2021/08/20 02:35:30;;;;;;;25.13;17.88;;;16.60;99.90;;;;;;5088843;28;20652;-71
2021/08/20 02:37:57;;;;;;;23.83;18.50;;;16.60;99.90;;;;;;5092158;28;20208;-71
2021/08/20 02:40:24;;;;;;;25.27;18.98;;;16.60;99.90;;;;;;5091397;28;20209;-72
2021/08/20 02:42:52;;;;;;;26.60;19.30;;;16.60;99.90;;;;;;5091094;28;20210;-71
2021/08/20 02:45:19;;;;;;;25.88;19.40;;;16.60;99.90;;;;;;5091537;28;20201;-72
2021/08/20 02:47:46;;;;;;;25.33;18.60;;;16.60;99.90;;;;;;5091599;28;20202;-71
2021/08/20 02:50:13;;;;;;;29.40;20.17;;;16.60;99.90;;;;;;5091885;28;20202;-72
2021/08/20 02:52:41;;;;;;;26.77;19.05;;;16.60;99.90;;;;;;5091625;28;20210;-71
2021/08/20 02:55:09;;;;;;;27.23;19.80;;;16.50;99.90;;;;;;5091385;28;20304;-71
2021/08/20 02:57:35;;;;;;;28.33;20.00;;;16.50;99.90;;;;;;5092501;28;20202;-71
2021/08/20 03:00:03;;;;;;;28.42;19.45;;;16.60;99.90;;;;;;5091911;28;20248;-72
2021/08/20 03:02:30;;;;;;;27.00;18.35;;;16.50;99.90;;;;;;5092188;28;20210;-71
2021/08/20 03:04:57;;;;;;;29.02;21.00;;;16.50;99.90;;;;;;5092187;28;20201;-71
2021/08/20 03:07:24;;;;;;;30.95;20.83;;;16.50;99.90;;;;;;5092150;28;20197;-71
2021/08/20 03:09:52;;;;;;;26.77;19.83;;;16.50;99.90;;;;;;5091853;28;20205;-71
2021/08/20 03:12:21;;;;;;;27.27;20.08;;;16.50;99.90;;;;;;5091650;28;20201;-71
2021/08/20 03:14:48;;;;;;;26.98;19.75;;;16.40;99.90;;;;;;5092262;28;20561;-71
2021/08/20 03:17:15;;;;;;;29.27;20.65;;;16.40;99.90;;;;;;5091667;28;20223;-71
2021/08/20 03:19:42;;;;;;;27.17;20.27;;;16.40;99.90;;;;;;5080032;28;20218;-72
2021/08/20 03:22:09;;;;;;;28.17;20.80;;;16.30;99.90;;;;;;5069885;28;20202;-71
2021/08/20 03:24:36;;;;;;;27.58;19.92;;;16.40;99.90;;;;;;5057894;28;20199;-71
2021/08/20 03:27:04;;;;;;;26.48;19.98;;;16.40;99.90;;;;;;5058943;28;20297;-71
2021/08/20 03:29:31;;;;;;;27.85;19.75;;;16.40;99.90;;;;;;5059706;28;20230;-71
2021/08/20 03:31:58;;;;;;;28.25;19.88;;;16.40;99.90;;;;;;5064324;28;20209;-72
2021/08/20 03:34:25;;;;;;;27.27;19.73;;;16.40;99.90;;;;;;5069599;28;20194;-71
2021/08/20 03:36:52;;;;;;;27.23;19.58;;;16.40;99.90;;;;;;5061075;28;20226;-72
2021/08/20 03:39:19;;;;;;;26.20;19.08;;;16.40;99.90;;;;;;5068953;28;20234;-72
2021/08/20 03:41:45;;;;;;;27.60;19.52;;;16.40;99.90;;;;;;5067461;28;20203;-72
2021/08/20 03:44:14;;;;;;;25.10;18.98;;;16.40;99.90;;;;;;5068759;28;20256;-71
2021/08/20 03:46:40;;;;;;;28.77;19.63;;;16.30;99.90;;;;;;5063458;28;20622;-71
2021/08/20 03:49:07;;;;;;;25.58;18.05;;;16.30;99.90;;;;;;5061235;28;20199;-72
2021/08/20 03:51:34;;;;;;;27.45;20.10;;;16.20;99.90;;;;;;5075502;28;20221;-71
2021/08/20 03:54:01;;;;;;;25.20;17.73;;;16.10;99.90;;;;;;5058334;28;20199;-71
2021/08/20 03:56:28;;;;;;;23.63;16.83;;;16.10;99.90;;;;;;5063596;28;20221;-71
2021/08/20 03:58:58;;;;;;;26.90;19.63;;;16.00;99.90;;;;;;5062701;28;20218;-71
2021/08/20 04:01:26;;;;;;;26.02;18.70;;;15.80;99.90;;;;;;5058686;28;20222;-71
2021/08/20 04:03:53;;;;;;;24.92;18.20;;;15.80;99.90;;;;;;5064239;28;20199;-71
2021/08/20 04:06:20;;;;;;;26.05;17.52;;;15.70;99.90;;;;;;5069566;28;20285;-71
2021/08/20 04:08:46;;;;;;;27.88;19.42;;;15.60;99.90;;;;;;5067641;28;20199;-71
2021/08/20 04:11:14;;;;;;;28.02;19.63;;;15.60;99.90;;;;;;5064205;28;20207;-71
2021/08/20 04:13:42;;;;;;;28.05;19.42;;;15.60;99.90;;;;;;5071086;28;20198;-71
2021/08/20 04:16:09;;;;;;;26.73;19.25;;;15.60;99.90;;;;;;5070487;28;20195;-71
2021/08/20 04:18:40;;;;;;;27.75;20.05;;;15.60;99.90;;;;;;5061892;28;20572;-71
2021/08/20 04:21:07;;;;;;;28.88;20.65;;;15.60;99.90;;;;;;5067188;28;20624;-71
2021/08/20 04:23:34;;;;;;;28.27;20.02;;;15.60;99.90;;;;;;5076167;28;20218;-71
2021/08/20 04:26:01;;;;;;;27.75;19.30;;;15.60;99.90;;;;;;5075227;28;20209;-72
2021/08/20 04:28:29;;;;;;;30.73;21.08;;;15.60;99.90;;;;;;5058019;28;20205;-71
2021/08/20 04:30:56;;;;;;;28.10;19.67;;;15.60;99.90;;;;;;5065531;28;20205;-71
2021/08/20 04:33:22;;;;;;;27.67;19.38;;;15.60;99.90;;;;;;5068659;28;20194;-71
2021/08/20 04:35:50;;;;;;;28.13;20.17;;;15.70;99.90;;;;;;5070435;28;20206;-71
2021/08/20 04:38:17;;;;;;;29.85;21.70;;;15.70;99.90;;;;;;5070420;28;20199;-71
2021/08/20 04:40:44;;;;;;;29.50;19.08;;;15.70;99.90;;;;;;5060272;28;20222;-71
2021/08/20 04:43:11;;;;;;;28.58;20.25;;;15.70;99.90;;;;;;5069624;28;20202;-71
2021/08/20 04:45:38;;;;;;;28.20;19.13;;;15.70;99.90;;;;;;5071864;28;20281;-71
2021/08/20 04:48:05;;;;;;;29.65;19.58;;;15.70;99.90;;;;;;5075137;28;20195;-68
2021/08/20 04:50:32;;;;;;;25.25;18.70;;;15.70;99.90;;;;;;5062964;28;20199;-69
2021/08/20 04:53:00;;;;;;;27.98;18.90;;;15.80;99.90;;;;;;5071249;28;20203;-71
2021/08/20 04:55:27;;;;;;;26.08;19.35;;;15.80;99.90;;;;;;5068508;28;20221;-71
2021/08/20 04:57:54;;;;;;;29.98;19.00;;;15.70;99.90;;;;;;5072458;28;20622;-71
2021/08/20 05:00:21;;;;;;;28.45;18.92;;;15.70;99.90;;;;;;5068487;28;20666;-71
2021/08/20 05:02:48;;;;;;;29.73;19.52;;;15.70;99.90;;;;;;5068991;28;20202;-71
2021/08/20 05:05:15;;;;;;;27.45;19.75;;;15.70;99.90;;;;;;5070946;28;20207;-71
2021/08/20 05:07:42;;;;;;;29.63;19.40;;;15.70;99.90;;;;;;5070560;28;20212;-71
2021/08/20 05:10:12;;;;;;;27.02;19.45;;;15.70;99.90;;;;;;5069598;28;20216;-72
2021/08/20 05:12:40;;;;;;;26.98;19.77;;;15.70;99.90;;;;;;5067258;28;20209;-71
2021/08/20 05:15:09;;;;;;;32.20;20.00;;;15.80;99.90;;;;;;5068363;28;20198;-71
2021/08/20 05:17:36;;;;;;;26.70;19.23;;;15.80;99.90;;;;;;5065808;28;20561;-71
2021/08/20 05:20:03;;;;;;;28.90;20.33;;;15.80;99.90;;;;;;5068090;28;20210;-71
2021/08/20 05:22:42;;;;;;;28.83;19.70;;;15.90;99.90;;;;;;5066680;28;20203;-72
2021/08/20 05:25:11;;;;;;;26.42;19.05;;;15.90;99.90;;;;;;5064426;28;20194;-71
2021/08/20 05:27:39;;;;;;;29.20;21.45;;;15.90;99.90;;;;;;5068945;28;20207;-72
2021/08/20 05:30:06;;;;;;;28.70;20.33;;;15.90;99.90;;;;;;5072767;28;20202;-71
2021/08/20 05:32:33;;;;;;;29.15;19.77;;;15.90;99.90;;;;;;5066891;28;20204;-72
2021/08/20 05:35:00;;;;;;;29.43;20.00;;;15.90;99.90;;;;;;5062440;28;20571;-71
2021/08/20 05:37:27;;;;;;;29.27;20.75;;;15.90;99.90;;;;;;5065954;28;20604;-71
2021/08/20 05:39:54;;;;;;;28.23;20.02;;;15.90;99.90;;;;;;5075104;28;20221;-72
2021/08/20 05:42:22;;;;;;;29.45;20.63;;;15.90;99.90;;;;;;5064151;28;20679;-71
2021/08/20 05:44:49;;;;;;;30.33;20.50;;;15.90;99.90;;;;;;5066208;28;20556;-71
2021/08/20 05:47:16;;;;;;;28.35;19.60;;;16.00;99.90;;;;;;5061309;28;20207;-71
2021/08/20 05:49:43;;;;;;;27.52;18.55;;;16.10;99.90;;;;;;5064676;28;20194;-71
2021/08/20 05:52:10;;;;;;;26.90;17.98;;;16.10;99.90;;;;;;5065832;28;20209;-71
2021/08/20 05:54:37;;;;;;;28.20;18.58;;;16.10;99.90;;;;;;5069391;28;20586;-71
2021/08/20 05:57:04;;;;;;;29.17;19.65;;;16.20;99.90;;;;;;5068807;28;20203;-71
2021/08/20 05:59:32;;;;;;;27.63;19.65;;;16.30;99.90;;;;;;5073978;28;20225;-71
2021/08/20 06:01:59;;;;;;;27.75;19.58;;;16.30;99.90;;;;;;5067522;28;20198;-71
2021/08/20 06:04:26;;;;;;;29.33;19.80;;;16.30;99.90;;;;;;5066328;28;20210;-71
2021/08/20 06:06:53;;;;;;;25.38;18.20;;;16.30;99.90;;;;;;5073332;28;20907;-71
2021/08/20 06:09:20;;;;;;;28.00;19.52;;;16.30;99.90;;;;;;5067235;28;20201;-71
2021/08/20 06:11:47;;;;;;;25.77;18.92;;;16.40;99.90;;;;;;5071285;28;20198;-71
2021/08/20 06:14:13;;;;;;;26.35;18.90;;;16.50;99.90;;;;;;5064771;28;20206;-71
2021/08/20 06:16:42;;;;;;;31.27;20.45;;;16.60;99.90;;;;;;5062277;28;20680;-72
2021/08/20 06:19:08;;;;;;;29.80;20.25;;;16.60;99.90;;;;;;5069264;28;20198;-71
2021/08/20 06:21:35;;;;;;;28.00;19.98;;;16.70;99.90;;;;;;5069077;28;20206;-71
2021/08/20 06:24:02;;;;;;;30.85;20.40;;;16.80;99.90;;;;;;5069030;28;20215;-71
2021/08/20 06:26:29;;;;;;;26.50;19.23;;;16.80;99.90;;;;;;5066194;28;20204;-71
2021/08/20 06:28:56;;;;;;;26.02;18.42;;;16.90;99.90;;;;;;5069428;28;20203;-71
2021/08/20 06:31:22;;;;;;;25.42;17.92;;;17.10;99.90;;;;;;5065013;28;20640;-71
2021/08/20 06:33:53;;;;;;;27.80;17.55;;;17.00;99.90;;;;;;5066343;28;20656;-71
2021/08/20 06:36:20;;;;;;;23.33;16.25;;;17.00;99.90;;;;;;5072021;28;20202;-71
2021/08/20 06:38:47;;;;;;;24.77;16.33;;;17.10;99.90;;;;;;5066618;28;20572;-71
2021/08/20 06:41:13;;;;;;;22.13;14.90;;;17.10;99.90;;;;;;5066243;28;20223;-72
2021/08/20 06:43:40;;;;;;;23.35;16.00;;;17.30;99.90;;;;;;5074008;28;20208;-71
2021/08/20 06:46:07;;;;;;;23.45;16.27;;;17.50;99.90;;;;;;5065000;28;20204;-71
2021/08/20 06:48:34;;;;;;;23.20;15.57;;;17.40;99.90;;;;;;5073759;28;20562;-71
2021/08/20 06:51:02;;;;;;;20.42;14.77;;;17.40;99.90;;;;;;5063529;28;20205;-71
2021/08/20 06:53:29;;;;;;;22.15;14.00;;;17.40;99.90;;;;;;5066398;28;20559;-72
2021/08/20 06:55:56;;;;;;;23.13;14.55;;;17.50;99.90;;;;;;5068978;28;20297;-71
2021/08/20 06:58:23;;;;;;;22.50;15.15;;;17.50;99.90;;;;;;5075707;28;20304;-72
2021/08/20 07:00:50;;;;;;;22.70;14.10;;;17.60;99.90;;;;;;5069373;28;20222;-71
2021/08/20 07:03:17;;;;;;;21.20;14.45;;;17.60;99.90;;;;;;5072713;28;20224;-71
2021/08/20 07:05:44;;;;;;;21.95;14.15;;;17.80;99.90;;;;;;5071795;28;20553;-71
2021/08/20 07:08:12;;;;;;;23.48;15.70;;;17.90;99.90;;;;;;5071572;28;20290;-71
2021/08/20 07:10:39;;;;;;;19.75;13.98;;;17.90;99.90;;;;;;5069236;28;20204;-71
2021/08/20 07:13:06;;;;;;;24.25;14.77;;;18.10;99.90;;;;;;5062845;28;20578;-71
2021/08/20 07:15:32;;;;;;;20.35;13.93;;;18.00;99.90;;;;;;5066292;28;20206;-71
2021/08/20 07:17:59;;;;;;;24.10;15.32;;;18.20;99.90;;;;;;5071870;28;20209;-71
2021/08/20 07:20:26;;;;;;;20.70;13.57;;;18.30;99.90;;;;;;5071392;28;20222;-71
2021/08/20 07:22:53;;;;;;;21.10;14.60;;;18.40;99.90;;;;;;5069921;28;20289;-71
2021/08/20 07:25:21;;;;;;;20.48;13.68;;;18.50;99.90;;;;;;5061518;28;20202;-71
2021/08/20 07:27:48;;;;;;;19.42;13.18;;;18.60;99.90;;;;;;5067753;28;20217;-71
2021/08/20 07:30:15;;;;;;;19.83;13.52;;;18.80;99.90;;;;;;5065406;28;20221;-71
2021/08/20 07:32:43;;;;;;;19.92;12.57;;;19.00;99.90;;;;;;5066139;28;20204;-72
2021/08/20 07:35:10;;;;;;;16.35;11.57;;;18.90;99.90;;;;;;5058885;28;20221;-71
2021/08/20 07:37:37;;;;;;;17.30;11.82;;;18.90;99.90;;;;;;5070259;28;20202;-72
2021/08/20 07:40:05;;;;;;;17.25;11.77;;;19.00;99.90;;;;;;5070223;28;20597;-72
2021/08/20 07:42:34;;;;;;;18.33;12.50;;;18.70;99.90;;;;;;5071295;28;20661;-71
2021/08/20 07:45:01;;;;;;;18.30;11.95;;;18.50;99.90;;;;;;5069820;28;20680;-71
2021/08/20 07:47:28;;;;;;;17.35;11.75;;;18.30;99.90;;;;;;5069049;28;20580;-71
2021/08/20 07:49:54;;;;;;;16.85;11.57;;;18.40;99.90;;;;;;5067279;28;20203;-71
2021/08/20 07:52:21;;;;;;;16.13;11.45;;;18.60;99.90;;;;;;5068626;28;20195;-71
2021/08/20 07:54:50;;;;;;;16.98;11.45;;;18.70;99.90;;;;;;5063226;28;20652;-72
2021/08/20 07:57:17;;;;;;;15.80;11.50;;;18.80;99.90;;;;;;5062132;28;20612;-71
2021/08/20 07:59:46;;;;;;;18.77;13.52;;;19.10;99.90;;;;;;5073240;28;20203;-71
2021/08/20 08:02:13;;;;;;;19.58;13.15;;;18.90;99.90;;;;;;5073830;28;20314;-71
2021/08/20 08:04:42;;;;;;;20.25;13.63;;;18.70;99.90;;;;;;5064931;28;20209;-71
2021/08/20 08:07:09;;;;;;;19.35;12.80;;;18.80;99.90;;;;;;5072472;28;20199;-70
2021/08/20 08:09:35;;;;;;;21.85;13.52;;;18.50;99.90;;;;;;5071113;28;20562;-70
2021/08/20 08:12:02;;;;;;;18.95;12.10;;;18.40;99.90;;;;;;5068667;28;20201;-70
2021/08/20 08:14:30;;;;;;;22.25;13.63;;;18.60;99.90;;;;;;5072588;28;20205;-70
2021/08/20 08:16:59;;;;;;;22.42;16.35;;;18.70;99.90;;;;;;5060457;28;20643;-70
2021/08/20 08:19:25;;;;;;;24.58;16.92;;;18.60;99.90;;;;;;5062220;28;20294;-71
2021/08/20 08:21:52;;;;;;;20.20;15.10;;;18.70;99.90;;;;;;5067143;28;20593;-70
2021/08/20 08:24:19;;;;;;;19.42;14.07;;;18.80;99.90;;;;;;5072713;28;20198;-70
2021/08/20 08:26:46;;;;;;;16.80;12.65;;;18.90;99.90;;;;;;5058223;28;20676;-71
2021/08/20 08:29:13;;;;;;;17.17;12.32;;;18.90;99.90;;;;;;5067265;28;20202;-70
2021/08/20 08:31:39;;;;;;;18.98;13.38;;;19.10;99.90;;;;;;5070339;28;20199;-70
2021/08/20 08:34:08;;;;;;;18.38;12.52;;;19.30;99.90;;;;;;5069594;28;20203;-70
2021/08/20 08:36:35;;;;;;;16.73;11.82;;;19.30;99.90;;;;;;5063462;28;20206;-70
2021/08/20 08:39:02;;;;;;;16.90;11.02;;;19.50;99.90;;;;;;5068463;28;20221;-70
2021/08/20 08:41:31;;;;;;;16.00;11.73;;;19.70;99.90;;;;;;5070283;28;20232;-70
2021/08/20 08:43:59;;;;;;;18.30;11.88;;;19.70;99.90;;;;;;5074664;28;20648;-70
2021/08/20 08:46:27;;;;;;;18.30;11.38;;;19.60;99.90;;;;;;5069101;28;20293;-70
2021/08/20 08:48:54;;;;;;;15.00;11.05;;;19.60;99.90;;;;;;5073584;28;20652;-70
2021/08/20 08:51:22;;;;;;;17.67;12.13;;;19.50;99.90;;;;;;5068586;28;20199;-70
2021/08/20 08:53:49;;;;;;;17.42;12.55;;;19.50;99.90;;;;;;5065660;28;20202;-70
2021/08/20 08:56:20;;;;;;;16.63;12.45;;;19.50;99.90;;;;;;5067760;28;20206;-70
2021/08/20 08:58:47;;;;;;;18.00;10.95;;;19.60;99.90;;;;;;5072812;28;20207;-71
2021/08/20 09:01:30;;;;;;;17.45;12.13;;;19.80;99.90;;;;;;5072403;28;20214;-70
2021/08/20 09:04:08;;;;;;;17.42;11.75;;;20.10;99.90;;;;;;5063792;28;20206;-70
2021/08/20 09:06:41;;;;;;;16.77;13.23;;;20.00;99.90;;;;;;5070538;28;20206;-70
2021/08/20 09:09:08;;;;;;;17.15;11.70;;;19.70;99.90;;;;;;5068194;28;20198;-70
2021/08/20 09:11:36;;;;;;;17.65;11.70;;;19.80;99.90;;;;;;5072952;28;20209;-71
2021/08/20 09:14:02;;;;;;;13.32;10.13;;;20.20;99.90;;;;;;5065125;28;20205;-70
2021/08/20 09:16:38;;;;;;;13.52;10.60;;;20.60;99.90;;;;;;5071116;28;20214;-70
2021/08/20 09:19:12;;;;;;;14.93;9.60;;;21.20;99.90;;;;;;5058935;28;20217;-70
2021/08/20 09:21:40;;;;;;;15.52;10.27;;;21.40;99.90;;;;;;5070725;28;20223;-70
2021/08/20 09:24:32;;;;;;;13.00;9.80;;;21.60;99.90;;;;;;5063807;28;20206;-70
2021/08/20 09:27:18;;;;;;;14.88;10.00;;;21.80;99.90;;;;;;5062551;28;20202;-70
2021/08/20 09:30:01;;;;;;;14.25;10.68;;;22.40;99.90;;;;;;5071328;28;20668;-70
2021/08/20 09:32:28;;;;;;;13.10;10.57;;;22.20;99.90;;;;;;5064238;28;20561;-70
2021/08/20 09:34:57;;;;;;;12.77;10.55;;;22.20;99.90;;;;;;5071645;28;20664;-71
2021/08/20 09:37:27;;;;;;;14.07;10.23;;;22.30;99.90;;;;;;5072237;28;20209;-70
2021/08/20 09:40:00;;;;;;;14.38;10.35;;;22.60;99.90;;;;;;5070441;28;20198;-70
2021/08/20 09:42:27;;;;;;;14.15;10.77;;;22.50;99.90;;;;;;5064555;28;20260;-71
2021/08/20 09:45:15;;;;;;;13.27;9.48;;;22.00;99.90;;;;;;5069589;28;20570;-70
2021/08/20 09:47:44;;;;;;;13.38;10.10;;;22.90;99.90;;;;;;5066175;28;20209;-70
2021/08/20 09:50:11;;;;;;;14.23;10.20;;;23.00;99.90;;;;;;5071012;28;20198;-70
2021/08/20 09:52:39;;;;;;;11.80;9.25;;;22.10;99.90;;;;;;5068069;28;20198;-71
2021/08/20 09:55:07;;;;;;;14.48;10.30;;;22.10;99.90;;;;;;5062858;28;20589;-71
2021/08/20 09:57:37;;;;;;;12.32;9.85;;;21.70;99.90;;;;;;5066158;28;20202;-71
2021/08/20 10:00:08;;;;;;;15.30;10.40;;;21.30;99.90;;;;;;5065980;28;20202;-71
2021/08/20 10:02:36;;;;;;;12.60;8.93;;;21.30;99.90;;;;;;5068038;28;20258;-71
2021/08/20 10:05:04;;;;;;;12.20;9.13;;;21.40;99.90;;;;;;5077957;28;20563;-71
2021/08/20 10:07:39;;;;;;;10.65;9.18;;;21.30;99.90;;;;;;5079975;28;20226;-71
2021/08/20 10:10:09;;;;;;;12.48;9.10;;;21.80;99.90;;;;;;5071899;28;20645;-70
2021/08/20 10:12:41;;;;;;;11.70;8.30;;;22.10;99.90;;;;;;5072551;28;20714;-70
2021/08/20 10:15:09;;;;;;;10.43;8.43;;;21.80;99.90;;;;;;5071686;28;20216;-71
2021/08/20 10:17:37;;;;;;;12.95;9.30;;;21.90;99.90;;;;;;5072458;28;20228;-71
2021/08/20 10:20:05;;;;;;;10.63;7.63;;;22.40;99.90;;;;;;5072013;28;20202;-71
2021/08/20 10:22:33;;;;;;;10.90;7.75;;;23.30;99.90;;;;;;5072452;28;20222;-71
2021/08/20 10:25:02;;;;;;;9.73;6.97;;;23.20;99.90;;;;;;5070866;28;20252;-71
2021/08/20 10:27:33;;;;;;;12.90;7.75;;;23.50;99.90;;;;;;5072607;28;20202;-71
2021/08/20 10:30:01;;;;;;;10.70;7.55;;;23.60;99.90;;;;;;5071586;28;20575;-71
2021/08/20 10:32:27;;;;;;;8.85;6.75;;;23.80;99.90;;;;;;5072295;28;20198;-71
2021/08/20 10:34:54;;;;;;;7.03;6.15;;;24.10;99.90;;;;;;5071703;28;20206;-71
2021/08/20 10:37:27;;;;;;;8.48;6.78;;;23.90;99.90;;;;;;5072107;28;20645;-71
2021/08/20 10:39:56;;;;;;;9.23;6.35;;;23.40;99.90;;;;;;5071136;28;20656;-71
2021/08/20 10:42:34;;;;;;;12.13;6.65;;;22.70;99.90;;;;;;5072407;28;20688;-71
2021/08/20 10:45:07;;;;;;;8.25;6.10;;;22.50;99.90;;;;;;5070917;28;20217;-71
2021/08/20 10:47:34;;;;;;;8.25;5.65;;;23.00;99.90;;;;;;5071030;28;20653;-71
2021/08/20 10:50:10;;;;;;;6.82;6.03;;;23.30;99.90;;;;;;5070801;28;22126;-71
2021/08/20 10:52:40;;;;;;;9.32;6.60;;;22.90;99.90;;;;;;5071879;28;20636;-71
2021/08/20 10:55:22;;;;;;;10.90;6.88;;;22.40;99.90;;;;;;5071112;28;20206;-71
2021/08/20 10:58:13;;;;;;;9.73;5.78;;;22.10;99.90;;;;;;5072089;28;20202;-71
2021/08/20 11:00:55;;;;;;;7.45;5.85;;;22.00;99.90;;;;;;5078770;28;20562;-71
2021/08/20 11:03:41;;;;;;;10.00;6.80;;;22.10;99.90;;;;;;5092233;28;20216;-71
2021/08/20 11:06:08;;;;;;;6.40;5.30;;;22.60;99.90;;;;;;5080451;28;20271;-71
2021/08/20 11:08:37;;;;;;;7.18;5.68;;;22.90;99.90;;;;;;5071844;28;20202;-71
2021/08/20 11:11:05;;;;;;;7.35;5.43;;;22.60;99.90;;;;;;5081503;28;20202;-71
2021/08/20 11:13:32;;;;;;;6.78;5.20;;;22.40;99.90;;;;;;5093558;28;20201;-71
2021/08/20 11:16:02;;;;;;;7.13;5.07;;;22.90;99.90;;;;;;5095015;28;20541;-71
2021/08/20 11:18:46;;;;;;;7.32;4.53;;;23.50;99.90;;;;;;5095941;28;20209;-71
2021/08/20 11:21:45;;;;;;;7.13;4.85;;;23.40;99.90;;;;;;5078055;28;20564;-71
2021/08/20 11:24:16;;;;;;;6.72;5.15;;;22.90;99.90;;;;;;5075464;28;20221;-71
2021/08/20 11:26:44;;;;;;;7.22;5.25;;;22.40;99.90;;;;;;5075192;28;20201;-71
2021/08/20 11:29:13;;;;;;;9.60;5.53;;;22.20;99.90;;;;;;5075065;28;20202;-71
2021/08/20 11:31:41;;;;;;;8.15;5.32;;;22.00;99.90;;;;;;5075503;28;20207;-70
2021/08/20 11:34:08;;;;;;;6.65;5.53;;;22.10;99.90;;;;;;5070407;28;20209;-73
2021/08/20 11:36:39;;;;;;;7.40;5.43;;;22.40;99.90;;;;;;5067621;28;20217;-73
2021/08/20 11:39:10;;;;;;;7.13;5.38;;;22.40;99.90;;;;;;5070486;28;20198;-75
2021/08/20 11:41:41;;;;;;;6.90;5.13;;;23.00;99.90;;;;;;5072095;28;20248;-72
2021/08/20 11:44:10;;;;;;;7.32;4.90;;;23.20;99.90;;;;;;5079795;28;20210;-72
2021/08/20 11:46:38;;;;;;;6.93;5.50;;;23.40;99.90;;;;;;5072903;28;20209;-73
2021/08/20 11:49:07;;;;;;;7.13;4.85;;;23.60;99.90;;;;;;5074609;28;20680;-72
2021/08/20 11:51:35;;;;;;;6.10;4.47;;;23.70;99.90;;;;;;5086124;28;20209;-73
2021/08/20 11:54:04;;;;;;;7.82;5.65;;;23.80;99.90;;;;;;5095688;28;20557;-72
2021/08/20 11:56:31;;;;;;;6.05;5.00;;;24.10;99.90;;;;;;5094364;28;20217;-73
2021/08/20 11:59:06;;;;;;;8.00;5.30;;;24.30;99.90;;;;;;5094898;28;20263;-73
2021/08/20 12:01:34;;;;;;;7.30;5.28;;;24.80;99.90;;;;;;5094371;28;20227;-72
2021/08/20 12:04:02;;;;;;;8.25;5.85;;;24.70;99.90;;;;;;5093632;28;20660;-73
2021/08/20 12:06:31;;;;;;;6.20;4.65;;;24.50;99.90;;;;;;5067656;28;20213;-72
2021/08/20 12:09:10;;;;;;;6.97;4.75;;;24.00;99.90;;;;;;5074188;28;20206;-72
2021/08/20 12:11:37;;;;;;;9.32;4.53;;;24.00;99.90;;;;;;5074774;28;20194;-73
2021/08/20 12:14:04;;;;;;;6.35;4.28;;;24.70;99.90;;;;;;5074854;28;20226;-72
2021/08/20 12:16:42;;;;;;;7.05;4.78;;;24.00;99.90;;;;;;5074076;28;20581;-72
2021/08/20 12:19:18;;;;;;;6.40;4.40;;;23.60;99.90;;;;;;5074437;28;20205;-72
2021/08/20 12:21:48;;;;;;;5.32;4.05;;;23.30;99.90;;;;;;5073712;28;20308;-73
2021/08/20 12:24:17;;;;;;;3.97;3.63;;;23.30;99.90;;;;;;5072742;28;20248;-72
2021/08/20 12:26:44;;;;;;;6.03;3.88;;;23.50;99.90;;;;;;5074841;28;20667;-72
2021/08/20 12:29:16;;;;;;;4.70;4.30;;;23.30;99.90;;;;;;5073959;28;20202;-73
2021/08/20 12:31:56;;;;;;;5.20;4.43;;;23.30;99.90;;;;;;5074255;28;20202;-72
2021/08/20 12:34:28;;;;;;;6.65;4.82;;;23.20;99.90;;;;;;5074682;28;20202;-72
2021/08/20 12:36:56;;;;;;;6.40;4.43;;;23.00;99.90;;;;;;5074662;28;20206;-73